sensor_id;sensor_type;location;lat;lon;timestamp;temperature;humidity
15930;DHT22;8064;51.142;4.780;2022-10-16T00:01:19;14.80;99.90
15930;DHT22;8064;51.142;4.780;2022-10-16T00:03:45;14.80;99.90
15930;DHT22;8064;51.142;4.780;2022-10-16T00:06:13;14.80;99.90
15930;DHT22;8064;51.142;4.780;2022-10-16T00:08:39;14.70;99.90
15930;DHT22;8064;51.142;4.780;2022-10-16T00:11:12;14.70;99.90
15930;DHT22;8064;51.142;4.780;2022-10-16T00:13:39;14.70;99.90
15930;DHT22;8064;51.142;4.780;2022-10-16T00:16:06;14.70;99.90
15930;DHT22;8064;51.142;4.780;2022-10-16T00:18:32;14.70;99.90
15930;DHT22;8064;51.142;4.780;2022-10-16T00:21:06;14.70;99.90
15930;DHT22;8064;51.142;4.780;2022-10-16T00:23:33;14.70;99.90
15930;DHT22;8064;51.142;4.780;2022-10-16T00:26:01;14.70;99.90
15930;DHT22;8064;51.142;4.780;2022-10-16T00:28:27;14.70;99.90
15930;DHT22;8064;51.142;4.780;2022-10-16T00:30:53;14.70;99.90
15930;DHT22;8064;51.142;4.780;2022-10-16T00:33:19;14.70;99.90
15930;DHT22;8064;51.142;4.780;2022-10-16T00:35:45;14.70;99.90
15930;DHT22;8064;51.142;4.780;2022-10-16T00:38:11;14.70;99.90
15930;DHT22;8064;51.142;4.780;2022-10-16T00:40:37;14.70;99.90
15930;DHT22;8064;51.142;4.780;2022-10-16T00:43:04;14.70;99.90
15930;DHT22;8064;51.142;4.780;2022-10-16T00:45:34;14.70;99.90
15930;DHT22;8064;51.142;4.780;2022-10-16T00:48:00;14.60;99.90
15930;DHT22;8064;51.142;4.780;2022-10-16T00:50:33;14.60;99.90
15930;DHT22;8064;51.142;4.780;2022-10-16T00:53:01;14.60;99.90
15930;DHT22;8064;51.142;4.780;2022-10-16T00:55:28;14.60;99.90
15930;DHT22;8064;51.142;4.780;2022-10-16T00:57:56;14.60;99.90
15930;DHT22;8064;51.142;4.780;2022-10-16T01:00:25;14.60;99.90
15930;DHT22;8064;51.142;4.780;2022-10-16T01:02:58;14.50;99.90
15930;DHT22;8064;51.142;4.780;2022-10-16T01:05:33;14.50;99.90
15930;DHT22;8064;51.142;4.780;2022-10-16T01:08:10;14.50;99.90
15930;DHT22;8064;51.142;4.780;2022-10-16T01:10:43;14.50;99.90
15930;DHT22;8064;51.142;4.780;2022-10-16T01:13:21;14.50;99.90
15930;DHT22;8064;51.142;4.780;2022-10-16T01:15:59;14.40;99.90
15930;DHT22;8064;51.142;4.780;2022-10-16T01:21:16;14.40;99.90
15930;DHT22;8064;51.142;4.780;2022-10-16T01:24:06;14.40;99.90
15930;DHT22;8064;51.142;4.780;2022-10-16T01:29:33;14.40;99.90
15930;DHT22;8064;51.142;4.780;2022-10-16T01:32:08;14.30;99.90
15930;DHT22;8064;51.142;4.780;2022-10-16T01:34:41;14.30;99.90
15930;DHT22;8064;51.142;4.780;2022-10-16T01:37:14;14.30;99.90
15930;DHT22;8064;51.142;4.780;2022-10-16T01:39:42;14.30;99.90
15930;DHT22;8064;51.142;4.780;2022-10-16T01:42:31;14.30;99.90
15930;DHT22;8064;51.142;4.780;2022-10-16T01:44:59;14.30;99.90
15930;DHT22;8064;51.142;4.780;2022-10-16T01:47:25;14.30;99.90
15930;DHT22;8064;51.142;4.780;2022-10-16T01:49:53;14.20;99.90
15930;DHT22;8064;51.142;4.780;2022-10-16T01:52:23;14.20;99.90
15930;DHT22;8064;51.142;4.780;2022-10-16T01:54:52;14.20;99.90
15930;DHT22;8064;51.142;4.780;2022-10-16T01:57:20;14.20;99.90
15930;DHT22;8064;51.142;4.780;2022-10-16T01:59:50;14.20;99.90
15930;DHT22;8064;51.142;4.780;2022-10-16T02:02:18;14.20;99.90
15930;DHT22;8064;51.142;4.780;2022-10-16T02:04:53;14.10;99.90
15930;DHT22;8064;51.142;4.780;2022-10-16T02:07:20;14.10;99.90
15930;DHT22;8064;51.142;4.780;2022-10-16T02:09:46;14.10;99.90
15930;DHT22;8064;51.142;4.780;2022-10-16T02:12:25;14.00;99.90
15930;DHT22;8064;51.142;4.780;2022-10-16T02:14:52;14.00;99.90
15930;DHT22;8064;51.142;4.780;2022-10-16T02:17:18;14.00;99.90
15930;DHT22;8064;51.142;4.780;2022-10-16T02:19:46;14.00;99.90
15930;DHT22;8064;51.142;4.780;2022-10-16T02:22:22;13.90;99.90
15930;DHT22;8064;51.142;4.780;2022-10-16T02:24:56;13.90;99.90
15930;DHT22;8064;51.142;4.780;2022-10-16T02:32:48;13.90;99.90
15930;DHT22;8064;51.142;4.780;2022-10-16T02:35:17;13.90;99.90
15930;DHT22;8064;51.142;4.780;2022-10-16T02:37:45;13.90;99.90
15930;DHT22;8064;51.142;4.780;2022-10-16T02:40:12;13.90;99.90
15930;DHT22;8064;51.142;4.780;2022-10-16T02:42:39;13.90;99.90
15930;DHT22;8064;51.142;4.780;2022-10-16T02:45:07;13.90;99.90
15930;DHT22;8064;51.142;4.780;2022-10-16T02:47:33;13.90;99.90
15930;DHT22;8064;51.142;4.780;2022-10-16T02:49:59;13.90;99.90
15930;DHT22;8064;51.142;4.780;2022-10-16T02:52:25;13.90;99.90
15930;DHT22;8064;51.142;4.780;2022-10-16T02:54:50;13.90;99.90
15930;DHT22;8064;51.142;4.780;2022-10-16T02:57:16;13.80;99.90
15930;DHT22;8064;51.142;4.780;2022-10-16T02:59:42;13.80;99.90
15930;DHT22;8064;51.142;4.780;2022-10-16T03:02:08;13.80;99.90
15930;DHT22;8064;51.142;4.780;2022-10-16T03:04:34;13.80;99.90
15930;DHT22;8064;51.142;4.780;2022-10-16T03:07:00;13.80;99.90
15930;DHT22;8064;51.142;4.780;2022-10-16T03:09:26;13.80;99.90
15930;DHT22;8064;51.142;4.780;2022-10-16T03:11:51;13.80;99.90
15930;DHT22;8064;51.142;4.780;2022-10-16T03:14:17;13.80;99.90
15930;DHT22;8064;51.142;4.780;2022-10-16T03:16:43;13.80;99.90
15930;DHT22;8064;51.142;4.780;2022-10-16T03:19:09;13.90;99.90
15930;DHT22;8064;51.142;4.780;2022-10-16T03:21:34;13.90;99.90
15930;DHT22;8064;51.142;4.780;2022-10-16T03:24:00;13.90;99.90
15930;DHT22;8064;51.142;4.780;2022-10-16T03:26:26;13.90;99.90
15930;DHT22;8064;51.142;4.780;2022-10-16T03:28:51;13.90;99.90
15930;DHT22;8064;51.142;4.780;2022-10-16T03:31:17;13.90;99.90
15930;DHT22;8064;51.142;4.780;2022-10-16T03:33:43;13.90;99.90
15930;DHT22;8064;51.142;4.780;2022-10-16T03:36:08;13.90;99.90
15930;DHT22;8064;51.142;4.780;2022-10-16T03:38:34;13.90;99.90
15930;DHT22;8064;51.142;4.780;2022-10-16T03:41:00;13.90;99.90
15930;DHT22;8064;51.142;4.780;2022-10-16T03:43:26;13.90;99.90
15930;DHT22;8064;51.142;4.780;2022-10-16T03:45:51;13.90;99.90
15930;DHT22;8064;51.142;4.780;2022-10-16T03:48:20;14.00;99.90
15930;DHT22;8064;51.142;4.780;2022-10-16T03:50:46;14.00;99.90
15930;DHT22;8064;51.142;4.780;2022-10-16T03:53:14;14.00;99.90
15930;DHT22;8064;51.142;4.780;2022-10-16T03:55:42;14.00;99.90
15930;DHT22;8064;51.142;4.780;2022-10-16T03:58:08;14.00;99.90
15930;DHT22;8064;51.142;4.780;2022-10-16T04:00:33;14.00;99.90
15930;DHT22;8064;51.142;4.780;2022-10-16T04:03:00;14.00;99.90
15930;DHT22;8064;51.142;4.780;2022-10-16T04:05:26;14.00;99.90
15930;DHT22;8064;51.142;4.780;2022-10-16T04:07:52;14.00;99.90
15930;DHT22;8064;51.142;4.780;2022-10-16T04:10:18;14.00;99.90
15930;DHT22;8064;51.142;4.780;2022-10-16T04:12:44;14.00;99.90
15930;DHT22;8064;51.142;4.780;2022-10-16T04:15:10;14.00;99.90
15930;DHT22;8064;51.142;4.780;2022-10-16T04:17:36;13.90;99.90
15930;DHT22;8064;51.142;4.780;2022-10-16T04:20:02;13.90;99.90
15930;DHT22;8064;51.142;4.780;2022-10-16T04:22:28;13.90;99.90
15930;DHT22;8064;51.142;4.780;2022-10-16T04:24:54;13.90;99.90
15930;DHT22;8064;51.142;4.780;2022-10-16T04:27:20;13.90;99.90
15930;DHT22;8064;51.142;4.780;2022-10-16T04:29:45;13.90;99.90
15930;DHT22;8064;51.142;4.780;2022-10-16T04:32:11;13.90;99.90
15930;DHT22;8064;51.142;4.780;2022-10-16T04:34:39;13.90;99.90
15930;DHT22;8064;51.142;4.780;2022-10-16T04:37:05;13.90;99.90
15930;DHT22;8064;51.142;4.780;2022-10-16T04:39:31;13.90;99.90
15930;DHT22;8064;51.142;4.780;2022-10-16T04:41:57;13.90;99.90
15930;DHT22;8064;51.142;4.780;2022-10-16T04:44:22;13.90;99.90
15930;DHT22;8064;51.142;4.780;2022-10-16T04:46:50;13.90;99.90
15930;DHT22;8064;51.142;4.780;2022-10-16T04:49:16;13.90;99.90
15930;DHT22;8064;51.142;4.780;2022-10-16T04:51:42;13.90;99.90
15930;DHT22;8064;51.142;4.780;2022-10-16T04:54:09;13.90;99.90
15930;DHT22;8064;51.142;4.780;2022-10-16T04:56:34;13.90;99.90
15930;DHT22;8064;51.142;4.780;2022-10-16T04:59:05;13.90;99.90
15930;DHT22;8064;51.142;4.780;2022-10-16T05:01:31;13.90;99.90
15930;DHT22;8064;51.142;4.780;2022-10-16T05:03:57;13.90;99.90
15930;DHT22;8064;51.142;4.780;2022-10-16T05:06:22;13.90;99.90
15930;DHT22;8064;51.142;4.780;2022-10-16T05:08:48;13.90;99.90
15930;DHT22;8064;51.142;4.780;2022-10-16T05:11:14;13.90;99.90
15930;DHT22;8064;51.142;4.780;2022-10-16T05:13:39;13.90;99.90
15930;DHT22;8064;51.142;4.780;2022-10-16T05:16:05;13.80;99.90
15930;DHT22;8064;51.142;4.780;2022-10-16T05:18:31;13.90;99.90
15930;DHT22;8064;51.142;4.780;2022-10-16T05:20:57;13.80;99.90
15930;DHT22;8064;51.142;4.780;2022-10-16T05:23:22;13.80;99.90
15930;DHT22;8064;51.142;4.780;2022-10-16T05:25:56;13.80;99.90
15930;DHT22;8064;51.142;4.780;2022-10-16T05:28:24;13.80;99.90
15930;DHT22;8064;51.142;4.780;2022-10-16T05:30:50;13.80;99.90
15930;DHT22;8064;51.142;4.780;2022-10-16T05:33:16;13.80;99.90
15930;DHT22;8064;51.142;4.780;2022-10-16T05:35:42;13.80;99.90
15930;DHT22;8064;51.142;4.780;2022-10-16T05:38:09;13.80;99.90
15930;DHT22;8064;51.142;4.780;2022-10-16T05:40:35;13.80;99.90
15930;DHT22;8064;51.142;4.780;2022-10-16T05:43:00;13.80;99.90
15930;DHT22;8064;51.142;4.780;2022-10-16T05:45:26;13.80;99.90
15930;DHT22;8064;51.142;4.780;2022-10-16T05:47:52;13.80;99.90
15930;DHT22;8064;51.142;4.780;2022-10-16T05:50:17;13.80;99.90
15930;DHT22;8064;51.142;4.780;2022-10-16T05:52:43;13.80;99.90
15930;DHT22;8064;51.142;4.780;2022-10-16T05:55:09;13.70;99.90
15930;DHT22;8064;51.142;4.780;2022-10-16T05:57:34;13.70;99.90
15930;DHT22;8064;51.142;4.780;2022-10-16T06:00:00;13.70;99.90
15930;DHT22;8064;51.142;4.780;2022-10-16T06:02:26;13.70;99.90
15930;DHT22;8064;51.142;4.780;2022-10-16T06:04:52;13.70;99.90
15930;DHT22;8064;51.142;4.780;2022-10-16T06:07:19;13.70;99.90
15930;DHT22;8064;51.142;4.780;2022-10-16T06:09:48;13.70;99.90
15930;DHT22;8064;51.142;4.780;2022-10-16T06:12:15;13.70;99.90
15930;DHT22;8064;51.142;4.780;2022-10-16T06:14:41;13.70;99.90
15930;DHT22;8064;51.142;4.780;2022-10-16T06:17:06;13.70;99.90
15930;DHT22;8064;51.142;4.780;2022-10-16T06:19:32;13.70;99.90
15930;DHT22;8064;51.142;4.780;2022-10-16T06:21:58;13.70;99.90
15930;DHT22;8064;51.142;4.780;2022-10-16T06:24:24;13.70;99.90
15930;DHT22;8064;51.142;4.780;2022-10-16T06:26:50;13.70;99.90
15930;DHT22;8064;51.142;4.780;2022-10-16T06:29:16;13.70;99.90
15930;DHT22;8064;51.142;4.780;2022-10-16T06:31:41;13.70;99.90
15930;DHT22;8064;51.142;4.780;2022-10-16T06:34:10;13.70;99.90
15930;DHT22;8064;51.142;4.780;2022-10-16T06:36:37;13.70;99.90
15930;DHT22;8064;51.142;4.780;2022-10-16T06:39:04;13.70;99.90
15930;DHT22;8064;51.142;4.780;2022-10-16T06:41:30;13.80;99.90
15930;DHT22;8064;51.142;4.780;2022-10-16T06:43:56;13.80;99.90
15930;DHT22;8064;51.142;4.780;2022-10-16T06:46:24;13.90;99.90
15930;DHT22;8064;51.142;4.780;2022-10-16T06:48:50;14.00;99.90
15930;DHT22;8064;51.142;4.780;2022-10-16T06:51:18;14.10;99.90
15930;DHT22;8064;51.142;4.780;2022-10-16T06:53:47;14.20;99.90
15930;DHT22;8064;51.142;4.780;2022-10-16T06:56:21;14.30;99.90
15930;DHT22;8064;51.142;4.780;2022-10-16T06:58:48;14.40;99.90
15930;DHT22;8064;51.142;4.780;2022-10-16T07:01:15;14.60;99.90
15930;DHT22;8064;51.142;4.780;2022-10-16T07:03:43;14.70;99.90
15930;DHT22;8064;51.142;4.780;2022-10-16T07:06:11;14.80;99.90
15930;DHT22;8064;51.142;4.780;2022-10-16T07:08:39;14.90;99.90
15930;DHT22;8064;51.142;4.780;2022-10-16T07:11:20;15.00;99.90
15930;DHT22;8064;51.142;4.780;2022-10-16T07:13:49;15.10;99.90
15930;DHT22;8064;51.142;4.780;2022-10-16T07:16:17;15.20;99.90
15930;DHT22;8064;51.142;4.780;2022-10-16T07:18:44;15.30;99.90
15930;DHT22;8064;51.142;4.780;2022-10-16T07:21:13;15.40;99.90
15930;DHT22;8064;51.142;4.780;2022-10-16T07:23:40;15.40;99.90
15930;DHT22;8064;51.142;4.780;2022-10-16T07:26:06;15.50;99.90
15930;DHT22;8064;51.142;4.780;2022-10-16T07:28:33;15.60;99.90
15930;DHT22;8064;51.142;4.780;2022-10-16T07:31:06;15.70;99.90
15930;DHT22;8064;51.142;4.780;2022-10-16T07:33:34;15.90;99.90
15930;DHT22;8064;51.142;4.780;2022-10-16T07:36:00;16.00;99.90
15930;DHT22;8064;51.142;4.780;2022-10-16T07:38:26;16.20;99.90
15930;DHT22;8064;51.142;4.780;2022-10-16T07:41:03;16.30;99.90
15930;DHT22;8064;51.142;4.780;2022-10-16T07:43:29;16.40;99.90
15930;DHT22;8064;51.142;4.780;2022-10-16T07:45:55;16.60;99.90
15930;DHT22;8064;51.142;4.780;2022-10-16T07:48:22;16.70;99.90
15930;DHT22;8064;51.142;4.780;2022-10-16T07:50:48;16.80;99.90
15930;DHT22;8064;51.142;4.780;2022-10-16T07:53:15;16.90;99.90
15930;DHT22;8064;51.142;4.780;2022-10-16T07:55:41;17.10;99.90
15930;DHT22;8064;51.142;4.780;2022-10-16T07:58:07;17.20;99.90
15930;DHT22;8064;51.142;4.780;2022-10-16T08:00:33;17.30;99.90
15930;DHT22;8064;51.142;4.780;2022-10-16T08:02:59;17.40;99.90
15930;DHT22;8064;51.142;4.780;2022-10-16T08:05:29;17.50;99.90
15930;DHT22;8064;51.142;4.780;2022-10-16T08:07:56;17.70;99.90
15930;DHT22;8064;51.142;4.780;2022-10-16T08:10:24;17.80;99.90
15930;DHT22;8064;51.142;4.780;2022-10-16T08:12:51;17.90;99.90
15930;DHT22;8064;51.142;4.780;2022-10-16T08:15:17;18.00;99.90
15930;DHT22;8064;51.142;4.780;2022-10-16T08:17:43;18.10;99.90
15930;DHT22;8064;51.142;4.780;2022-10-16T08:20:09;18.10;99.90
15930;DHT22;8064;51.142;4.780;2022-10-16T08:22:35;18.30;99.90
15930;DHT22;8064;51.142;4.780;2022-10-16T08:25:01;18.40;99.90
15930;DHT22;8064;51.142;4.780;2022-10-16T08:27:32;18.40;99.90
15930;DHT22;8064;51.142;4.780;2022-10-16T08:29:57;18.60;99.90
15930;DHT22;8064;51.142;4.780;2022-10-16T08:32:23;18.70;99.90
15930;DHT22;8064;51.142;4.780;2022-10-16T08:34:49;18.80;99.90
15930;DHT22;8064;51.142;4.780;2022-10-16T08:37:14;18.90;99.90
15930;DHT22;8064;51.142;4.780;2022-10-16T08:39:40;19.00;99.90
15930;DHT22;8064;51.142;4.780;2022-10-16T08:50:43;19.70;99.90
15930;DHT22;8064;51.142;4.780;2022-10-16T08:53:30;19.70;99.90
15930;DHT22;8064;51.142;4.780;2022-10-16T08:55:57;19.80;99.90
15930;DHT22;8064;51.142;4.780;2022-10-16T08:58:28;19.90;99.90
15930;DHT22;8064;51.142;4.780;2022-10-16T09:00:57;20.10;99.90
15930;DHT22;8064;51.142;4.780;2022-10-16T09:11:41;20.30;99.90
15930;DHT22;8064;51.142;4.780;2022-10-16T09:23:08;24.90;91.70
15930;DHT22;8064;51.142;4.780;2022-10-16T09:25:36;26.20;87.90
15930;DHT22;8064;51.142;4.780;2022-10-16T09:28:05;26.90;84.60
15930;DHT22;8064;51.142;4.780;2022-10-16T09:30:31;28.10;79.40
15930;DHT22;8064;51.142;4.780;2022-10-16T09:32:58;30.00;73.20
15930;DHT22;8064;51.142;4.780;2022-10-16T09:35:44;31.70;67.70
15930;DHT22;8064;51.142;4.780;2022-10-16T09:38:31;33.50;60.70
15930;DHT22;8064;51.142;4.780;2022-10-16T09:43:42;36.10;54.50
15930;DHT22;8064;51.142;4.780;2022-10-16T09:46:31;36.80;51.80
15930;DHT22;8064;51.142;4.780;2022-10-16T09:49:00;36.20;52.20
15930;DHT22;8064;51.142;4.780;2022-10-16T09:51:29;36.70;50.80
15930;DHT22;8064;51.142;4.780;2022-10-16T09:54:15;36.90;49.80
15930;DHT22;8064;51.142;4.780;2022-10-16T09:56:41;38.20;47.00
15930;DHT22;8064;51.142;4.780;2022-10-16T09:59:13;38.80;46.90
15930;DHT22;8064;51.142;4.780;2022-10-16T10:01:42;39.80;44.30
15930;DHT22;8064;51.142;4.780;2022-10-16T10:04:10;40.40;42.50
15930;DHT22;8064;51.142;4.780;2022-10-16T10:06:49;40.90;42.50
15930;DHT22;8064;51.142;4.780;2022-10-16T10:09:37;40.90;41.00
15930;DHT22;8064;51.142;4.780;2022-10-16T10:12:19;41.80;39.90
15930;DHT22;8064;51.142;4.780;2022-10-16T10:14:47;42.80;38.80
15930;DHT22;8064;51.142;4.780;2022-10-16T10:19:46;44.20;37.10
15930;DHT22;8064;51.142;4.780;2022-10-16T10:22:25;44.60;36.60
15930;DHT22;8064;51.142;4.780;2022-10-16T10:25:14;45.00;35.20
15930;DHT22;8064;51.142;4.780;2022-10-16T10:30:39;45.60;33.90
15930;DHT22;8064;51.142;4.780;2022-10-16T10:46:50;38.40;41.70
15930;DHT22;8064;51.142;4.780;2022-10-16T10:49:39;37.00;43.00
15930;DHT22;8064;51.142;4.780;2022-10-16T10:54:53;39.80;40.00
15930;DHT22;8064;51.142;4.780;2022-10-16T11:00:21;42.60;37.50
15930;DHT22;8064;51.142;4.780;2022-10-16T11:05:56;40.90;37.40
15930;DHT22;8064;51.142;4.780;2022-10-16T11:08:32;41.20;36.90
15930;DHT22;8064;51.142;4.780;2022-10-16T11:11:02;38.70;38.50
15930;DHT22;8064;51.142;4.780;2022-10-16T11:16:36;34.10;44.30
15930;DHT22;8064;51.142;4.780;2022-10-16T11:21:56;31.30;48.80
15930;DHT22;8064;51.142;4.780;2022-10-16T11:24:53;30.00;50.70
15930;DHT22;8064;51.142;4.780;2022-10-16T11:27:39;30.00;51.20
15930;DHT22;8064;51.142;4.780;2022-10-16T11:30:22;29.40;51.90
15930;DHT22;8064;51.142;4.780;2022-10-16T11:33:03;28.70;52.90
15930;DHT22;8064;51.142;4.780;2022-10-16T11:38:12;26.80;55.80
15930;DHT22;8064;51.142;4.780;2022-10-16T11:40:42;26.00;57.50
15930;DHT22;8064;51.142;4.780;2022-10-16T11:43:38;25.20;59.60
15930;DHT22;8064;51.142;4.780;2022-10-16T11:46:13;24.70;60.30
15930;DHT22;8064;51.142;4.780;2022-10-16T11:48:50;24.30;61.80
15930;DHT22;8064;51.142;4.780;2022-10-16T11:51:36;23.90;62.10
15930;DHT22;8064;51.142;4.780;2022-10-16T11:56:50;23.40;64.10
15930;DHT22;8064;51.142;4.780;2022-10-16T11:59:28;23.20;65.00
15930;DHT22;8064;51.142;4.780;2022-10-16T12:02:33;23.10;65.80
15930;DHT22;8064;51.142;4.780;2022-10-16T12:08:02;22.90;68.00
15930;DHT22;8064;51.142;4.780;2022-10-16T12:10:31;22.80;68.60
15930;DHT22;8064;51.142;4.780;2022-10-16T12:13:04;22.70;68.60
15930;DHT22;8064;51.142;4.780;2022-10-16T12:15:33;22.70;68.90
15930;DHT22;8064;51.142;4.780;2022-10-16T12:18:00;22.60;69.50
15930;DHT22;8064;51.142;4.780;2022-10-16T12:20:33;22.60;70.00
15930;DHT22;8064;51.142;4.780;2022-10-16T12:23:04;22.50;70.30
15930;DHT22;8064;51.142;4.780;2022-10-16T12:25:39;22.40;70.80
15930;DHT22;8064;51.142;4.780;2022-10-16T12:28:25;22.30;71.30
15930;DHT22;8064;51.142;4.780;2022-10-16T12:31:08;22.20;71.70
15930;DHT22;8064;51.142;4.780;2022-10-16T12:33:52;22.00;72.10
15930;DHT22;8064;51.142;4.780;2022-10-16T12:36:33;22.00;72.30
15930;DHT22;8064;51.142;4.780;2022-10-16T12:39:01;21.90;72.80
15930;DHT22;8064;51.142;4.780;2022-10-16T12:41:33;21.80;73.50
15930;DHT22;8064;51.142;4.780;2022-10-16T12:44:00;21.70;74.20
15930;DHT22;8064;51.142;4.780;2022-10-16T12:49:22;21.70;75.60
15930;DHT22;8064;51.142;4.780;2022-10-16T12:51:50;21.70;75.10
15930;DHT22;8064;51.142;4.780;2022-10-16T12:54:19;21.70;75.30
15930;DHT22;8064;51.142;4.780;2022-10-16T12:57:02;21.70;75.30
15930;DHT22;8064;51.142;4.780;2022-10-16T13:16:08;21.20;78.00
15930;DHT22;8064;51.142;4.780;2022-10-16T13:30:16;20.80;79.10
15930;DHT22;8064;51.142;4.780;2022-10-16T13:32:48;20.80;79.50
15930;DHT22;8064;51.142;4.780;2022-10-16T13:35:23;20.80;80.20
15930;DHT22;8064;51.142;4.780;2022-10-16T13:37:50;20.70;80.70
15930;DHT22;8064;51.142;4.780;2022-10-16T13:40:21;20.70;80.90
15930;DHT22;8064;51.142;4.780;2022-10-16T13:42:48;20.60;81.50
15930;DHT22;8064;51.142;4.780;2022-10-16T13:45:22;20.50;81.60
15930;DHT22;8064;51.142;4.780;2022-10-16T13:47:48;20.50;81.80
15930;DHT22;8064;51.142;4.780;2022-10-16T13:50:17;20.40;82.10
15930;DHT22;8064;51.142;4.780;2022-10-16T13:52:44;20.40;82.60
15930;DHT22;8064;51.142;4.780;2022-10-16T13:55:14;20.30;82.90
15930;DHT22;8064;51.142;4.780;2022-10-16T13:57:40;20.30;83.60
15930;DHT22;8064;51.142;4.780;2022-10-16T14:00:20;20.40;84.10
15930;DHT22;8064;51.142;4.780;2022-10-16T14:02:52;20.40;84.70
15930;DHT22;8064;51.142;4.780;2022-10-16T14:05:19;20.40;85.10
15930;DHT22;8064;51.142;4.780;2022-10-16T14:07:49;20.40;85.40
15930;DHT22;8064;51.142;4.780;2022-10-16T14:10:25;20.30;85.70
15930;DHT22;8064;51.142;4.780;2022-10-16T14:13:04;20.30;86.30
15930;DHT22;8064;51.142;4.780;2022-10-16T14:15:32;20.30;86.20
15930;DHT22;8064;51.142;4.780;2022-10-16T14:17:59;20.30;86.30
15930;DHT22;8064;51.142;4.780;2022-10-16T14:20:28;20.20;87.20
15930;DHT22;8064;51.142;4.780;2022-10-16T14:25:47;20.20;86.50
15930;DHT22;8064;51.142;4.780;2022-10-16T14:28:17;20.10;86.40
15930;DHT22;8064;51.142;4.780;2022-10-16T14:30:54;20.10;86.60
15930;DHT22;8064;51.142;4.780;2022-10-16T14:36:09;20.00;87.10
15930;DHT22;8064;51.142;4.780;2022-10-16T14:38:38;20.00;87.40
15930;DHT22;8064;51.142;4.780;2022-10-16T14:41:05;20.00;87.50
15930;DHT22;8064;51.142;4.780;2022-10-16T14:43:36;19.90;87.60
15930;DHT22;8064;51.142;4.780;2022-10-16T14:46:04;19.90;87.80
15930;DHT22;8064;51.142;4.780;2022-10-16T14:48:32;19.90;88.00
15930;DHT22;8064;51.142;4.780;2022-10-16T14:50:57;20.00;88.30
15930;DHT22;8064;51.142;4.780;2022-10-16T14:53:23;20.00;88.70
15930;DHT22;8064;51.142;4.780;2022-10-16T14:55:49;19.90;88.90
15930;DHT22;8064;51.142;4.780;2022-10-16T14:58:19;19.90;89.00
15930;DHT22;8064;51.142;4.780;2022-10-16T15:00:46;19.90;89.20
15930;DHT22;8064;51.142;4.780;2022-10-16T15:03:12;19.90;89.40
15930;DHT22;8064;51.142;4.780;2022-10-16T15:05:38;19.80;89.90
15930;DHT22;8064;51.142;4.780;2022-10-16T15:08:04;19.80;90.10
15930;DHT22;8064;51.142;4.780;2022-10-16T15:10:38;19.80;90.20
15930;DHT22;8064;51.142;4.780;2022-10-16T15:13:04;19.70;90.30
15930;DHT22;8064;51.142;4.780;2022-10-16T15:15:38;19.70;90.40
15930;DHT22;8064;51.142;4.780;2022-10-16T15:18:05;19.60;90.60
15930;DHT22;8064;51.142;4.780;2022-10-16T15:20:33;19.60;90.80
15930;DHT22;8064;51.142;4.780;2022-10-16T15:23:03;19.60;91.00
15930;DHT22;8064;51.142;4.780;2022-10-16T15:25:47;19.50;91.20
15930;DHT22;8064;51.142;4.780;2022-10-16T15:28:15;19.50;91.40
15930;DHT22;8064;51.142;4.780;2022-10-16T15:30:41;19.50;91.40
15930;DHT22;8064;51.142;4.780;2022-10-16T15:33:13;19.40;91.50
15930;DHT22;8064;51.142;4.780;2022-10-16T15:35:39;19.40;91.70
15930;DHT22;8064;51.142;4.780;2022-10-16T15:38:05;19.40;92.00
15930;DHT22;8064;51.142;4.780;2022-10-16T15:40:31;19.40;92.30
15930;DHT22;8064;51.142;4.780;2022-10-16T15:42:56;19.40;92.60
15930;DHT22;8064;51.142;4.780;2022-10-16T15:45:22;19.30;92.70
15930;DHT22;8064;51.142;4.780;2022-10-16T15:47:48;19.30;92.80
15930;DHT22;8064;51.142;4.780;2022-10-16T15:50:14;19.20;92.90
15930;DHT22;8064;51.142;4.780;2022-10-16T15:52:41;19.20;93.00
15930;DHT22;8064;51.142;4.780;2022-10-16T15:55:11;19.20;93.30
15930;DHT22;8064;51.142;4.780;2022-10-16T15:57:39;19.20;93.60
15930;DHT22;8064;51.142;4.780;2022-10-16T16:00:12;19.10;93.70
15930;DHT22;8064;51.142;4.780;2022-10-16T16:02:38;19.10;93.80
15930;DHT22;8064;51.142;4.780;2022-10-16T16:05:05;19.00;93.80
15930;DHT22;8064;51.142;4.780;2022-10-16T16:07:36;19.00;94.00
15930;DHT22;8064;51.142;4.780;2022-10-16T16:10:04;18.90;94.10
15930;DHT22;8064;51.142;4.780;2022-10-16T16:12:30;18.90;94.20
15930;DHT22;8064;51.142;4.780;2022-10-16T16:14:56;18.90;94.30
15930;DHT22;8064;51.142;4.780;2022-10-16T16:17:22;18.80;94.40
15930;DHT22;8064;51.142;4.780;2022-10-16T16:19:47;18.80;94.60
15930;DHT22;8064;51.142;4.780;2022-10-16T16:22:13;18.80;94.80
15930;DHT22;8064;51.142;4.780;2022-10-16T16:24:39;18.70;94.90
15930;DHT22;8064;51.142;4.780;2022-10-16T16:27:05;18.70;95.00
15930;DHT22;8064;51.142;4.780;2022-10-16T16:29:30;18.60;95.10
15930;DHT22;8064;51.142;4.780;2022-10-16T16:31:56;18.60;95.20
15930;DHT22;8064;51.142;4.780;2022-10-16T16:34:26;18.60;95.30
15930;DHT22;8064;51.142;4.780;2022-10-16T16:36:52;18.50;95.40
15930;DHT22;8064;51.142;4.780;2022-10-16T16:39:18;18.50;95.50
15930;DHT22;8064;51.142;4.780;2022-10-16T16:41:44;18.50;95.60
15930;DHT22;8064;51.142;4.780;2022-10-16T16:44:11;18.40;95.70
15930;DHT22;8064;51.142;4.780;2022-10-16T16:46:37;18.40;95.80
15930;DHT22;8064;51.142;4.780;2022-10-16T16:49:05;18.30;95.80
15930;DHT22;8064;51.142;4.780;2022-10-16T16:51:31;18.40;96.00
15930;DHT22;8064;51.142;4.780;2022-10-16T16:53:57;18.30;96.10
15930;DHT22;8064;51.142;4.780;2022-10-16T16:56:25;18.30;96.20
15930;DHT22;8064;51.142;4.780;2022-10-16T16:58:53;18.30;96.30
15930;DHT22;8064;51.142;4.780;2022-10-16T17:01:20;18.30;96.50
15930;DHT22;8064;51.142;4.780;2022-10-16T17:03:48;18.30;96.70
15930;DHT22;8064;51.142;4.780;2022-10-16T17:06:15;18.20;96.80
15930;DHT22;8064;51.142;4.780;2022-10-16T17:08:41;18.20;96.90
15930;DHT22;8064;51.142;4.780;2022-10-16T17:11:13;18.20;96.90
15930;DHT22;8064;51.142;4.780;2022-10-16T17:13:39;18.20;97.00
15930;DHT22;8064;51.142;4.780;2022-10-16T17:16:06;18.10;97.00
15930;DHT22;8064;51.142;4.780;2022-10-16T17:18:32;18.10;97.00
15930;DHT22;8064;51.142;4.780;2022-10-16T17:21:03;18.10;97.10
15930;DHT22;8064;51.142;4.780;2022-10-16T17:23:29;18.00;97.20
15930;DHT22;8064;51.142;4.780;2022-10-16T17:25:56;18.00;97.30
15930;DHT22;8064;51.142;4.780;2022-10-16T17:28:22;18.00;97.40
15930;DHT22;8064;51.142;4.780;2022-10-16T17:30:48;18.00;97.50
15930;DHT22;8064;51.142;4.780;2022-10-16T17:33:14;18.00;97.60
15930;DHT22;8064;51.142;4.780;2022-10-16T17:35:42;18.00;97.60
15930;DHT22;8064;51.142;4.780;2022-10-16T17:38:09;17.90;97.60
15930;DHT22;8064;51.142;4.780;2022-10-16T17:40:35;17.90;97.70
15930;DHT22;8064;51.142;4.780;2022-10-16T17:43:01;17.90;98.20
15930;DHT22;8064;51.142;4.780;2022-10-16T17:45:27;17.90;98.10
15930;DHT22;8064;51.142;4.780;2022-10-16T17:47:54;18.00;98.30
15930;DHT22;8064;51.142;4.780;2022-10-16T17:50:20;17.90;98.60
15930;DHT22;8064;51.142;4.780;2022-10-16T17:52:45;17.90;98.90
15930;DHT22;8064;51.142;4.780;2022-10-16T17:55:11;17.80;99.00